sensor_id;sensor_type;location;lat;lon;timestamp;pressure;altitude;pressure_sealevel;temperature;humidity
79372;BME280;68914;51.262;6.802;2023-04-25T00:00:11;100758.19;;;9.55;62.16
79372;BME280;68914;51.262;6.802;2023-04-25T00:01:15;100750.91;;;9.57;62.01
79372;BME280;68914;51.262;6.802;2023-04-25T00:02:16;100755.16;;;9.58;61.74
79372;BME280;68914;51.262;6.802;2023-04-25T00:03:16;100758.22;;;9.33;63.15
79372;BME280;68914;51.262;6.802;2023-04-25T00:04:18;100759.88;;;9.63;62.29
79372;BME280;68914;51.262;6.802;2023-04-25T00:05:19;100760.34;;;9.45;62.49
79372;BME280;68914;51.262;6.802;2023-04-25T00:06:20;100751.56;;;9.66;62.23
79372;BME280;68914;51.262;6.802;2023-04-25T00:07:21;100756.84;;;9.66;62.23
79372;BME280;68914;51.262;6.802;2023-04-25T00:08:22;100762.50;;;9.63;62.02
79372;BME280;68914;51.262;6.802;2023-04-25T00:09:23;100755.66;;;9.68;61.83
79372;BME280;68914;51.262;6.802;2023-04-25T00:10:23;100744.34;;;9.74;61.84
79372;BME280;68914;51.262;6.802;2023-04-25T00:11:24;100748.03;;;9.80;61.56
79372;BME280;68914;51.262;6.802;2023-04-25T00:12:25;100752.19;;;9.68;61.81
79372;BME280;68914;51.262;6.802;2023-04-25T00:13:25;100752.47;;;9.79;61.67
79372;BME280;68914;51.262;6.802;2023-04-25T00:14:27;100749.31;;;9.91;60.97
79372;BME280;68914;51.262;6.802;2023-04-25T00:15:28;100745.44;;;9.87;61.63
79372;BME280;68914;51.262;6.802;2023-04-25T00:16:31;100749.63;;;9.74;61.21
79372;BME280;68914;51.262;6.802;2023-04-25T00:17:34;100746.31;;;9.66;61.92
79372;BME280;68914;51.262;6.802;2023-04-25T00:18:35;100745.19;;;9.81;61.42
79372;BME280;68914;51.262;6.802;2023-04-25T00:19:36;100747.16;;;9.73;61.76
79372;BME280;68914;51.262;6.802;2023-04-25T00:20:38;100755.75;;;9.53;62.26
79372;BME280;68914;51.262;6.802;2023-04-25T00:21:38;100749.41;;;9.76;61.20
79372;BME280;68914;51.262;6.802;2023-04-25T00:22:40;100747.38;;;9.71;61.96
79372;BME280;68914;51.262;6.802;2023-04-25T00:23:41;100751.00;;;9.42;62.71
79372;BME280;68914;51.262;6.802;2023-04-25T00:24:41;100750.59;;;9.39;63.61
79372;BME280;68914;51.262;6.802;2023-04-25T00:25:46;100744.50;;;9.66;61.80
79372;BME280;68914;51.262;6.802;2023-04-25T00:26:46;100754.31;;;9.51;62.29
79372;BME280;68914;51.262;6.802;2023-04-25T00:27:48;100754.03;;;9.67;62.57
79372;BME280;68914;51.262;6.802;2023-04-25T00:28:48;100754.59;;;9.63;62.58
79372;BME280;68914;51.262;6.802;2023-04-25T00:29:49;100748.28;;;9.57;62.83
79372;BME280;68914;51.262;6.802;2023-04-25T00:30:50;100748.59;;;9.75;62.18
79372;BME280;68914;51.262;6.802;2023-04-25T00:31:51;100757.66;;;9.38;63.36
79372;BME280;68914;51.262;6.802;2023-04-25T00:32:51;100753.59;;;9.64;62.33
79372;BME280;68914;51.262;6.802;2023-04-25T00:33:52;100756.84;;;9.66;62.30
79372;BME280;68914;51.262;6.802;2023-04-25T00:34:53;100750.31;;;9.55;62.51
79372;BME280;68914;51.262;6.802;2023-04-25T00:35:56;100756.66;;;9.67;62.52
79372;BME280;68914;51.262;6.802;2023-04-25T00:36:56;100770.34;;;9.56;62.60
79372;BME280;68914;51.262;6.802;2023-04-25T00:37:57;100753.53;;;9.57;62.60
79372;BME280;68914;51.262;6.802;2023-04-25T00:38:58;100753.41;;;9.65;62.78
79372;BME280;68914;51.262;6.802;2023-04-25T00:39:58;100761.13;;;9.67;62.76
79372;BME280;68914;51.262;6.802;2023-04-25T00:40:59;100761.78;;;9.75;62.18
79372;BME280;68914;51.262;6.802;2023-04-25T00:42:00;100762.84;;;9.88;61.54
79372;BME280;68914;51.262;6.802;2023-04-25T00:43:02;100756.56;;;9.82;61.63
79372;BME280;68914;51.262;6.802;2023-04-25T00:44:03;100761.25;;;9.87;62.22
79372;BME280;68914;51.262;6.802;2023-04-25T00:45:05;100760.44;;;9.58;62.07
79372;BME280;68914;51.262;6.802;2023-04-25T00:46:07;100762.66;;;9.54;62.15
79372;BME280;68914;51.262;6.802;2023-04-25T00:47:08;100761.72;;;9.41;63.09
79372;BME280;68914;51.262;6.802;2023-04-25T00:48:09;100755.28;;;9.43;62.19
79372;BME280;68914;51.262;6.802;2023-04-25T00:49:09;100758.81;;;9.57;62.71
79372;BME280;68914;51.262;6.802;2023-04-25T00:50:15;100753.69;;;9.49;62.97
79372;BME280;68914;51.262;6.802;2023-04-25T00:51:20;100762.94;;;9.66;62.68
79372;BME280;68914;51.262;6.802;2023-04-25T00:52:20;100762.50;;;9.63;62.89
79372;BME280;68914;51.262;6.802;2023-04-25T00:53:21;100757.91;;;9.71;62.26
79372;BME280;68914;51.262;6.802;2023-04-25T00:54:22;100755.56;;;9.55;62.88
79372;BME280;68914;51.262;6.802;2023-04-25T00:55:23;100750.81;;;9.72;62.12
79372;BME280;68914;51.262;6.802;2023-04-25T00:56:24;100760.19;;;9.53;62.48
79372;BME280;68914;51.262;6.802;2023-04-25T00:57:25;100753.00;;;9.68;62.36
79372;BME280;68914;51.262;6.802;2023-04-25T00:58:26;100749.47;;;9.89;62.04
79372;BME280;68914;51.262;6.802;2023-04-25T00:59:27;100755.53;;;9.83;61.78
79372;BME280;68914;51.262;6.802;2023-04-25T01:00:28;100756.69;;;9.74;62.42
79372;BME280;68914;51.262;6.802;2023-04-25T01:01:30;100747.91;;;9.60;62.39
79372;BME280;68914;51.262;6.802;2023-04-25T01:02:32;100756.34;;;9.83;62.02
79372;BME280;68914;51.262;6.802;2023-04-25T01:03:34;100753.25;;;9.73;62.10
79372;BME280;68914;51.262;6.802;2023-04-25T01:04:41;100755.84;;;9.39;63.34
79372;BME280;68914;51.262;6.802;2023-04-25T01:05:42;100756.91;;;9.44;62.90
79372;BME280;68914;51.262;6.802;2023-04-25T01:06:43;100756.19;;;9.57;62.81
79372;BME280;68914;51.262;6.802;2023-04-25T01:07:44;100760.34;;;9.45;63.16
79372;BME280;68914;51.262;6.802;2023-04-25T01:08:45;100746.66;;;9.56;62.84
79372;BME280;68914;51.262;6.802;2023-04-25T01:09:46;100752.50;;;9.51;62.89
79372;BME280;68914;51.262;6.802;2023-04-25T01:10:47;100751.44;;;9.46;63.55
79372;BME280;68914;51.262;6.802;2023-04-25T01:11:48;100755.50;;;9.48;62.85
79372;BME280;68914;51.262;6.802;2023-04-25T01:12:49;100755.94;;;9.52;63.31
79372;BME280;68914;51.262;6.802;2023-04-25T01:13:50;100762.59;;;9.76;62.85
79372;BME280;68914;51.262;6.802;2023-04-25T01:14:51;100755.28;;;9.78;62.22
79372;BME280;68914;51.262;6.802;2023-04-25T01:15:52;100762.22;;;9.51;62.84
79372;BME280;68914;51.262;6.802;2023-04-25T01:16:53;100752.16;;;9.61;62.96
79372;BME280;68914;51.262;6.802;2023-04-25T01:17:55;100756.19;;;9.57;62.87
79372;BME280;68914;51.262;6.802;2023-04-25T01:18:56;100755.88;;;9.45;63.61
79372;BME280;68914;51.262;6.802;2023-04-25T01:19:56;100755.72;;;9.25;63.64
79372;BME280;68914;51.262;6.802;2023-04-25T01:22:09;100760.09;;;9.68;62.36
79372;BME280;68914;51.262;6.802;2023-04-25T01:23:10;100757.53;;;9.81;62.63
79372;BME280;68914;51.262;6.802;2023-04-25T01:24:12;100753.75;;;9.55;62.69
79372;BME280;68914;51.262;6.802;2023-04-25T01:25:14;100762.22;;;9.51;62.93
79372;BME280;68914;51.262;6.802;2023-04-25T01:26:15;100760.84;;;9.55;62.97
79372;BME280;68914;51.262;6.802;2023-04-25T01:27:16;100760.44;;;9.58;62.83
79372;BME280;68914;51.262;6.802;2023-04-25T01:28:18;100748.81;;;9.46;62.97
79372;BME280;68914;51.262;6.802;2023-04-25T01:29:19;100764.31;;;9.34;63.95
79372;BME280;68914;51.262;6.802;2023-04-25T01:30:20;100748.91;;;9.59;63.36
79372;BME280;68914;51.262;6.802;2023-04-25T01:31:21;100754.63;;;9.69;62.43
79372;BME280;68914;51.262;6.802;2023-04-25T01:32:23;100756.97;;;9.51;63.33
79372;BME280;68914;51.262;6.802;2023-04-25T01:33:24;100758.34;;;9.47;63.52
79372;BME280;68914;51.262;6.802;2023-04-25T01:34:24;100756.97;;;9.51;63.31
79372;BME280;68914;51.262;6.802;2023-04-25T01:35:25;100759.53;;;9.72;62.52
79372;BME280;68914;51.262;6.802;2023-04-25T01:36:29;100760.38;;;9.79;62.48
79372;BME280;68914;51.262;6.802;2023-04-25T01:37:31;100758.38;;;9.53;63.34
79372;BME280;68914;51.262;6.802;2023-04-25T01:38:32;100762.75;;;9.68;62.80
79372;BME280;68914;51.262;6.802;2023-04-25T01:39:34;100760.44;;;9.58;63.67
79372;BME280;68914;51.262;6.802;2023-04-25T01:40:38;100764.06;;;9.85;62.80
79372;BME280;68914;51.262;6.802;2023-04-25T01:41:40;100768.22;;;9.66;62.96
79372;BME280;68914;51.262;6.802;2023-04-25T01:42:42;100766.75;;;9.64;62.85
79372;BME280;68914;51.262;6.802;2023-04-25T01:43:44;100773.53;;;9.79;62.54
79372;BME280;68914;51.262;6.802;2023-04-25T01:44:45;100771.66;;;9.73;62.52
79372;BME280;68914;51.262;6.802;2023-04-25T01:45:46;100771.78;;;9.58;63.93
79372;BME280;68914;51.262;6.802;2023-04-25T01:46:47;100771.22;;;9.63;63.69
79372;BME280;68914;51.262;6.802;2023-04-25T01:47:47;100774.50;;;9.72;62.64
79372;BME280;68914;51.262;6.802;2023-04-25T01:48:49;100771.22;;;9.63;63.29
79372;BME280;68914;51.262;6.802;2023-04-25T01:49:51;100771.38;;;9.55;63.48
79372;BME280;68914;51.262;6.802;2023-04-25T01:50:51;100775.25;;;9.59;63.75
79372;BME280;68914;51.262;6.802;2023-04-25T01:51:52;100783.06;;;9.24;64.58
79372;BME280;68914;51.262;6.802;2023-04-25T01:52:53;100779.78;;;9.22;65.11
79372;BME280;68914;51.262;6.802;2023-04-25T01:53:54;100786.44;;;8.97;65.23
79372;BME280;68914;51.262;6.802;2023-04-25T01:54:57;100789.19;;;9.10;65.34
79372;BME280;68914;51.262;6.802;2023-04-25T01:55:58;100782.28;;;9.30;64.90
79372;BME280;68914;51.262;6.802;2023-04-25T01:57:00;100780.38;;;9.46;64.32
79372;BME280;68914;51.262;6.802;2023-04-25T01:58:02;100779.41;;;9.25;64.95
79372;BME280;68914;51.262;6.802;2023-04-25T01:59:25;100792.88;;;9.37;64.49
79372;BME280;68914;51.262;6.802;2023-04-25T02:00:51;100780.34;;;9.39;64.23
79372;BME280;68914;51.262;6.802;2023-04-25T02:01:52;100789.53;;;9.50;63.78
79372;BME280;68914;51.262;6.802;2023-04-25T02:02:59;100796.25;;;9.52;63.79
79372;BME280;68914;51.262;6.802;2023-04-25T02:04:04;100778.00;;;9.51;64.30
79372;BME280;68914;51.262;6.802;2023-04-25T02:05:09;100791.25;;;8.93;66.38
79372;BME280;68914;51.262;6.802;2023-04-25T02:06:13;100795.16;;;9.19;65.31
79372;BME280;68914;51.262;6.802;2023-04-25T02:07:17;100791.44;;;9.34;65.22
79372;BME280;68914;51.262;6.802;2023-04-25T02:08:23;100793.16;;;9.49;64.21
79372;BME280;68914;51.262;6.802;2023-04-25T02:09:23;100787.59;;;9.37;64.49
79372;BME280;68914;51.262;6.802;2023-04-25T02:10:28;100794.91;;;9.35;65.24
79372;BME280;68914;51.262;6.802;2023-04-25T02:11:41;100791.72;;;9.46;64.67
79372;BME280;68914;51.262;6.802;2023-04-25T02:13:08;100788.47;;;9.44;64.97
79372;BME280;68914;51.262;6.802;2023-04-25T02:14:38;100793.53;;;9.46;64.77
79372;BME280;68914;51.262;6.802;2023-04-25T02:15:48;100790.50;;;9.70;64.09
79372;BME280;68914;51.262;6.802;2023-04-25T02:16:51;100788.56;;;9.57;64.04
79372;BME280;68914;51.262;6.802;2023-04-25T02:17:52;100795.22;;;9.53;63.71
79372;BME280;68914;51.262;6.802;2023-04-25T02:18:54;100789.38;;;9.58;63.53
79372;BME280;68914;51.262;6.802;2023-04-25T02:19:54;100791.13;;;9.72;63.64
79372;BME280;68914;51.262;6.802;2023-04-25T02:20:55;100790.03;;;9.60;63.81
79372;BME280;68914;51.262;6.802;2023-04-25T02:21:55;100796.94;;;9.40;64.31
79372;BME280;68914;51.262;6.802;2023-04-25T02:22:57;100797.63;;;9.48;64.05
79372;BME280;68914;51.262;6.802;2023-04-25T02:23:58;100794.25;;;9.54;63.73
79372;BME280;68914;51.262;6.802;2023-04-25T02:24:58;100791.19;;;9.51;64.23
79372;BME280;68914;51.262;6.802;2023-04-25T02:25:59;100793.81;;;9.51;63.73
79372;BME280;68914;51.262;6.802;2023-04-25T02:27:00;100791.53;;;9.76;62.94
79372;BME280;68914;51.262;6.802;2023-04-25T02:28:01;100793.22;;;9.83;62.74
79372;BME280;68914;51.262;6.802;2023-04-25T02:29:01;100789.34;;;9.79;62.41
79372;BME280;68914;51.262;6.802;2023-04-25T02:30:03;100796.09;;;9.60;63.86
79372;BME280;68914;51.262;6.802;2023-04-25T02:31:04;100791.56;;;9.26;64.28
79372;BME280;68914;51.262;6.802;2023-04-25T02:32:05;100799.44;;;9.48;63.67
79372;BME280;68914;51.262;6.802;2023-04-25T02:33:05;100794.78;;;9.50;63.32
79372;BME280;68914;51.262;6.802;2023-04-25T02:34:06;100793.09;;;9.64;63.34
79372;BME280;68914;51.262;6.802;2023-04-25T02:35:11;100790.25;;;9.65;63.54
79372;BME280;68914;51.262;6.802;2023-04-25T02:36:11;100793.53;;;9.46;63.78
79372;BME280;68914;51.262;6.802;2023-04-25T02:37:12;100802.31;;;9.53;63.20
79372;BME280;68914;51.262;6.802;2023-04-25T02:38:13;100795.38;;;9.45;63.69
79372;BME280;68914;51.262;6.802;2023-04-25T02:39:14;100803.13;;;9.53;63.17
79372;BME280;68914;51.262;6.802;2023-04-25T02:40:15;100795.88;;;9.62;62.99
79372;BME280;68914;51.262;6.802;2023-04-25T02:41:15;100796.63;;;9.49;63.81
79372;BME280;68914;51.262;6.802;2023-04-25T02:42:16;100808.59;;;9.30;64.49
79372;BME280;68914;51.262;6.802;2023-04-25T02:43:16;100800.31;;;9.33;64.27
79372;BME280;68914;51.262;6.802;2023-04-25T02:44:17;100802.66;;;9.43;63.92
79372;BME280;68914;51.262;6.802;2023-04-25T02:45:19;100802.69;;;9.50;63.46
79372;BME280;68914;51.262;6.802;2023-04-25T02:46:20;100796.81;;;9.26;64.39
79372;BME280;68914;51.262;6.802;2023-04-25T02:47:21;100797.69;;;9.33;63.65
79372;BME280;68914;51.262;6.802;2023-04-25T02:48:23;100798.19;;;9.22;64.28
79372;BME280;68914;51.262;6.802;2023-04-25T02:49:24;100797.97;;;9.17;64.36
79372;BME280;68914;51.262;6.802;2023-04-25T02:50:26;100799.19;;;8.78;65.43
79372;BME280;68914;51.262;6.802;2023-04-25T02:51:27;100801.47;;;9.24;64.42
79372;BME280;68914;51.262;6.802;2023-04-25T02:52:27;100800.16;;;9.35;64.29
79372;BME280;68914;51.262;6.802;2023-04-25T02:53:36;100794.97;;;8.99;65.29
79372;BME280;68914;51.262;6.802;2023-04-25T02:54:37;100796.50;;;8.93;65.80
79372;BME280;68914;51.262;6.802;2023-04-25T02:55:38;100792.19;;;8.85;65.51
79372;BME280;68914;51.262;6.802;2023-04-25T02:56:39;100791.97;;;9.23;64.98
79372;BME280;68914;51.262;6.802;2023-04-25T02:57:45;100792.16;;;9.00;65.58
79372;BME280;68914;51.262;6.802;2023-04-25T02:58:49;100784.72;;;9.10;65.44
79372;BME280;68914;51.262;6.802;2023-04-25T02:59:50;100783.25;;;9.23;64.53
79372;BME280;68914;51.262;6.802;2023-04-25T03:00:50;100787.66;;;9.44;63.99
79372;BME280;68914;51.262;6.802;2023-04-25T03:01:51;100789.31;;;9.23;65.24
79372;BME280;68914;51.262;6.802;2023-04-25T03:02:52;100796.81;;;9.26;65.11
79372;BME280;68914;51.262;6.802;2023-04-25T03:03:53;100796.72;;;9.13;65.80
79372;BME280;68914;51.262;6.802;2023-04-25T03:04:54;100793.78;;;9.23;65.11
79372;BME280;68914;51.262;6.802;2023-04-25T03:05:54;100794.25;;;9.33;64.82
79372;BME280;68914;51.262;6.802;2023-04-25T03:06:59;100789.59;;;9.07;65.57
79372;BME280;68914;51.262;6.802;2023-04-25T03:08:00;100797.28;;;8.87;66.55
79372;BME280;68914;51.262;6.802;2023-04-25T03:09:02;100792.94;;;8.79;66.72
79372;BME280;68914;51.262;6.802;2023-04-25T03:10:03;100800.22;;;8.99;66.23
79372;BME280;68914;51.262;6.802;2023-04-25T03:11:05;100793.53;;;8.96;66.18
79372;BME280;68914;51.262;6.802;2023-04-25T03:12:06;100796.72;;;8.92;66.43
79372;BME280;68914;51.262;6.802;2023-04-25T03:13:08;100795.94;;;8.76;67.21
79372;BME280;68914;51.262;6.802;2023-04-25T03:14:08;100802.59;;;8.94;66.90
79372;BME280;68914;51.262;6.802;2023-04-25T03:15:09;100799.97;;;8.94;66.29
79372;BME280;68914;51.262;6.802;2023-04-25T03:16:10;100802.16;;;8.90;66.65
79372;BME280;68914;51.262;6.802;2023-04-25T03:17:11;100799.59;;;8.97;66.26
79372;BME280;68914;51.262;6.802;2023-04-25T03:18:11;100801.81;;;8.78;67.16
79372;BME280;68914;51.262;6.802;2023-04-25T03:19:13;100797.66;;;8.84;67.14
79372;BME280;68914;51.262;6.802;2023-04-25T03:20:16;100806.22;;;8.71;67.17
79372;BME280;68914;51.262;6.802;2023-04-25T03:21:17;100798.53;;;8.91;66.78
79372;BME280;68914;51.262;6.802;2023-04-25T03:22:18;100798.22;;;9.01;66.35
79372;BME280;68914;51.262;6.802;2023-04-25T03:23:18;100802.25;;;8.82;66.97
79372;BME280;68914;51.262;6.802;2023-04-25T03:24:19;100810.34;;;8.80;67.21
79372;BME280;68914;51.262;6.802;2023-04-25T03:25:20;100798.91;;;8.88;66.77
79372;BME280;68914;51.262;6.802;2023-04-25T03:26:21;100806.38;;;8.70;67.73
79372;BME280;68914;51.262;6.802;2023-04-25T03:27:22;100806.53;;;8.83;67.23
79372;BME280;68914;51.262;6.802;2023-04-25T03:28:23;100806.63;;;8.75;67.87
79372;BME280;68914;51.262;6.802;2023-04-25T03:29:24;100812.53;;;8.77;67.22
79372;BME280;68914;51.262;6.802;2023-04-25T03:30:27;100806.22;;;8.71;67.97
79372;BME280;68914;51.262;6.802;2023-04-25T03:31:27;100805.66;;;8.76;67.55
79372;BME280;68914;51.262;6.802;2023-04-25T03:32:28;100802.84;;;8.99;66.54
79372;BME280;68914;51.262;6.802;2023-04-25T03:33:29;100800.59;;;8.96;66.77
79372;BME280;68914;51.262;6.802;2023-04-25T03:34:30;100799.59;;;8.97;66.19
79372;BME280;68914;51.262;6.802;2023-04-25T03:35:31;100804.94;;;9.03;66.30
79372;BME280;68914;51.262;6.802;2023-04-25T03:36:31;100802.59;;;8.94;67.16
79372;BME280;68914;51.262;6.802;2023-04-25T03:37:34;100801.97;;;8.92;67.31
79372;BME280;68914;51.262;6.802;2023-04-25T03:38:35;100802.16;;;8.90;67.11
79372;BME280;68914;51.262;6.802;2023-04-25T03:39:37;100809.22;;;8.90;67.06
79372;BME280;68914;51.262;6.802;2023-04-25T03:40:38;100811.41;;;8.86;67.74
79372;BME280;68914;51.262;6.802;2023-04-25T03:41:49;100810.91;;;8.76;67.55
79372;BME280;68914;51.262;6.802;2023-04-25T03:42:51;100807.28;;;8.98;67.00
79372;BME280;68914;51.262;6.802;2023-04-25T03:43:52;100802.66;;;9.00;67.24
79372;BME280;68914;51.262;6.802;2023-04-25T03:44:53;100816.31;;;8.74;67.88
79372;BME280;68914;51.262;6.802;2023-04-25T03:45:54;100811.78;;;8.83;67.73
79372;BME280;68914;51.262;6.802;2023-04-25T03:46:57;100818.81;;;8.97;66.91
79372;BME280;68914;51.262;6.802;2023-04-25T03:47:58;100823.25;;;8.75;67.74
79372;BME280;68914;51.262;6.802;2023-04-25T03:48:59;100826.69;;;8.76;67.83
79372;BME280;68914;51.262;6.802;2023-04-25T03:50:09;100818.44;;;8.64;68.66
79372;BME280;68914;51.262;6.802;2023-04-25T03:51:11;100822.31;;;8.83;68.00
79372;BME280;68914;51.262;6.802;2023-04-25T03:52:15;100823.16;;;8.69;68.50
79372;BME280;68914;51.262;6.802;2023-04-25T03:53:19;100817.09;;;8.90;67.62
79372;BME280;68914;51.262;6.802;2023-04-25T03:54:42;100817.09;;;8.68;68.65
79372;BME280;68914;51.262;6.802;2023-04-25T03:55:47;100821.41;;;8.40;69.17
79372;BME280;68914;51.262;6.802;2023-04-25T03:56:48;100820.63;;;8.60;68.71
79372;BME280;68914;51.262;6.802;2023-04-25T03:57:53;100814.38;;;8.61;68.29
79372;BME280;68914;51.262;6.802;2023-04-25T03:58:53;100820.91;;;8.51;69.07
79372;BME280;68914;51.262;6.802;2023-04-25T03:59:56;100820.53;;;8.54;68.98
79372;BME280;68914;51.262;6.802;2023-04-25T04:00:58;100818.28;;;8.51;69.06
79372;BME280;68914;51.262;6.802;2023-04-25T04:01:59;100817.75;;;8.41;69.53
79372;BME280;68914;51.262;6.802;2023-04-25T04:03:00;100821.81;;;8.43;69.48
79372;BME280;68914;51.262;6.802;2023-04-25T04:04:01;100827.34;;;8.19;70.06
79372;BME280;68914;51.262;6.802;2023-04-25T04:05:03;100825.34;;;8.50;69.47
79372;BME280;68914;51.262;6.802;2023-04-25T04:06:05;100829.34;;;8.61;68.61
79372;BME280;68914;51.262;6.802;2023-04-25T04:07:10;100837.31;;;8.53;69.17
79372;BME280;68914;51.262;6.802;2023-04-25T04:08:13;100823.47;;;8.44;69.57
79372;BME280;68914;51.262;6.802;2023-04-25T04:09:14;100828.78;;;8.36;69.71
79372;BME280;68914;51.262;6.802;2023-04-25T04:10:17;100832.97;;;8.45;69.55
79372;BME280;68914;51.262;6.802;2023-04-25T04:11:18;100837.13;;;8.54;69.10
79372;BME280;68914;51.262;6.802;2023-04-25T04:12:19;100827.91;;;8.44;69.23
79372;BME280;68914;51.262;6.802;2023-04-25T04:13:19;100834.34;;;8.56;69.13
79372;BME280;68914;51.262;6.802;2023-04-25T04:14:20;100833.59;;;8.47;69.39
79372;BME280;68914;51.262;6.802;2023-04-25T04:15:23;100827.25;;;8.42;69.30
79372;BME280;68914;51.262;6.802;2023-04-25T04:16:23;100832.78;;;8.32;70.01
79372;BME280;68914;51.262;6.802;2023-04-25T04:17:24;100830.44;;;8.37;69.51
79372;BME280;68914;51.262;6.802;2023-04-25T04:18:26;100836.47;;;8.23;70.16
79372;BME280;68914;51.262;6.802;2023-04-25T04:19:30;100835.88;;;8.35;69.83
79372;BME280;68914;51.262;6.802;2023-04-25T04:20:40;100835.03;;;8.50;69.12
79372;BME280;68914;51.262;6.802;2023-04-25T04:21:41;100845.31;;;8.45;69.09
79372;BME280;68914;51.262;6.802;2023-04-25T04:22:42;100844.09;;;8.62;68.92
79372;BME280;68914;51.262;6.802;2023-04-25T04:23:48;100838.81;;;8.77;68.34
79372;BME280;68914;51.262;6.802;2023-04-25T04:24:49;100837.91;;;8.84;67.72
79372;BME280;68914;51.262;6.802;2023-04-25T04:25:55;100832.41;;;9.01;67.04
79372;BME280;68914;51.262;6.802;2023-04-25T04:27:23;100841.53;;;8.83;67.86
79372;BME280;68914;51.262;6.802;2023-04-25T04:28:50;100840.53;;;8.84;67.84
79372;BME280;68914;51.262;6.802;2023-04-25T04:30:04;100839.19;;;8.74;68.48
79372;BME280;68914;51.262;6.802;2023-04-25T04:31:08;100837.75;;;8.71;68.78
79372;BME280;68914;51.262;6.802;2023-04-25T04:32:09;100837.34;;;8.74;67.99
79372;BME280;68914;51.262;6.802;2023-04-25T04:33:10;100842.81;;;8.73;68.01
79372;BME280;68914;51.262;6.802;2023-04-25T04:34:12;100843.34;;;8.83;67.59
79372;BME280;68914;51.262;6.802;2023-04-25T04:35:13;100838.22;;;8.45;68.82
79372;BME280;68914;51.262;6.802;2023-04-25T04:36:14;100841.09;;;8.65;68.43
79372;BME280;68914;51.262;6.802;2023-04-25T04:37:16;100843.94;;;8.49;68.74
79372;BME280;68914;51.262;6.802;2023-04-25T04:38:17;100844.03;;;8.41;69.36
79372;BME280;68914;51.262;6.802;2023-04-25T04:39:19;100850.34;;;8.76;68.20
79372;BME280;68914;51.262;6.802;2023-04-25T04:40:50;100844.84;;;8.56;68.42
79372;BME280;68914;51.262;6.802;2023-04-25T04:41:56;100852.66;;;8.85;67.80
79372;BME280;68914;51.262;6.802;2023-04-25T04:43:15;100855.84;;;8.81;67.62
79372;BME280;68914;51.262;6.802;2023-04-25T04:44:37;100854.00;;;8.60;68.09
79372;BME280;68914;51.262;6.802;2023-04-25T04:46:02;100856.69;;;8.67;68.27
79372;BME280;68914;51.262;6.802;2023-04-25T04:47:24;100856.91;;;8.86;67.18
79372;BME280;68914;51.262;6.802;2023-04-25T04:48:49;100855.13;;;8.87;67.11
79372;BME280;68914;51.262;6.802;2023-04-25T04:50:09;100864.19;;;8.84;67.22
79372;BME280;68914;51.262;6.802;2023-04-25T04:51:28;100861.31;;;8.65;67.51
79372;BME280;68914;51.262;6.802;2023-04-25T04:52:28;100863.25;;;8.41;68.60
79372;BME280;68914;51.262;6.802;2023-04-25T04:53:37;100862.25;;;8.42;68.60
79372;BME280;68914;51.262;6.802;2023-04-25T04:54:52;100866.56;;;8.65;67.70
79372;BME280;68914;51.262;6.802;2023-04-25T04:56:16;100868.75;;;8.76;67.24
79372;BME280;68914;51.262;6.802;2023-04-25T04:57:43;100869.91;;;8.88;66.90
79372;BME280;68914;51.262;6.802;2023-04-25T04:58:50;100868.28;;;8.72;67.52
79372;BME280;68914;51.262;6.802;2023-04-25T05:00:14;100872.44;;;8.67;67.66
79372;BME280;68914;51.262;6.802;2023-04-25T05:01:35;100874.25;;;8.66;67.52
79372;BME280;68914;51.262;6.802;2023-04-25T05:02:57;100878.06;;;8.78;67.22
79372;BME280;68914;51.262;6.802;2023-04-25T05:04:05;100885.69;;;8.73;67.54
79372;BME280;68914;51.262;6.802;2023-04-25T05:05:24;100884.91;;;8.94;66.79
79372;BME280;68914;51.262;6.802;2023-04-25T05:06:36;100881.53;;;9.15;65.88
79372;BME280;68914;51.262;6.802;2023-04-25T05:08:02;100886.00;;;9.00;66.40
79372;BME280;68914;51.262;6.802;2023-04-25T05:09:21;100885.75;;;9.31;65.20
79372;BME280;68914;51.262;6.802;2023-04-25T05:10:39;100889.22;;;9.17;65.26
79372;BME280;68914;51.262;6.802;2023-04-25T05:11:58;100892.28;;;8.84;67.17
79372;BME280;68914;51.262;6.802;2023-04-25T05:13:11;100896.53;;;9.00;66.65
79372;BME280;68914;51.262;6.802;2023-04-25T05:14:32;100896.16;;;9.03;66.41
79372;BME280;68914;51.262;6.802;2023-04-25T05:15:50;100893.19;;;8.91;66.59
79372;BME280;68914;51.262;6.802;2023-04-25T05:17:29;100897.59;;;9.05;65.78
79372;BME280;68914;51.262;6.802;2023-04-25T05:18:47;100896.63;;;8.92;66.66
79372;BME280;68914;51.262;6.802;2023-04-25T05:20:17;100893.31;;;8.83;66.88
79372;BME280;68914;51.262;6.802;2023-04-25T05:21:39;100911.56;;;9.06;66.05
79372;BME280;68914;51.262;6.802;2023-04-25T05:22:44;100909.31;;;9.03;66.11
79372;BME280;68914;51.262;6.802;2023-04-25T05:23:55;100907.94;;;9.07;65.67
79372;BME280;68914;51.262;6.802;2023-04-25T05:25:19;100900.28;;;9.48;64.32
79372;BME280;68914;51.262;6.802;2023-04-25T05:26:34;100910.16;;;9.25;64.75
79372;BME280;68914;51.262;6.802;2023-04-25T05:27:55;100900.97;;;9.35;65.13
79372;BME280;68914;51.262;6.802;2023-04-25T05:29:17;100903.72;;;9.49;64.76
79372;BME280;68914;51.262;6.802;2023-04-25T05:30:56;100907.28;;;9.63;63.59
79372;BME280;68914;51.262;6.802;2023-04-25T05:32:06;100915.72;;;9.15;64.61
79372;BME280;68914;51.262;6.802;2023-04-25T05:33:08;100920.00;;;9.38;64.40
79372;BME280;68914;51.262;6.802;2023-04-25T05:34:09;100919.31;;;9.29;64.36
79372;BME280;68914;51.262;6.802;2023-04-25T05:35:25;100915.53;;;9.17;64.95
79372;BME280;68914;51.262;6.802;2023-04-25T05:36:26;100920.69;;;9.25;64.73
79372;BME280;68914;51.262;6.802;2023-04-25T05:37:27;100914.66;;;8.95;65.87
79372;BME280;68914;51.262;6.802;2023-04-25T05:38:43;100914.13;;;8.99;65.53
79372;BME280;68914;51.262;6.802;2023-04-25T05:40:03;100910.28;;;9.38;64.24
79372;BME280;68914;51.262;6.802;2023-04-25T05:41:19;100911.91;;;9.60;62.97
79372;BME280;68914;51.262;6.802;2023-04-25T05:42:22;100914.47;;;9.32;64.03
79372;BME280;68914;51.262;6.802;2023-04-25T05:43:40;100920.19;;;9.36;63.80